Bob Hope Airport Burbank US
ICAO: KBUR
IATA: BUR
Category: Medium
Scheduled Services: Yes

Elevation: 778 ft
TransAlt. 18000 ft.

Airport Communications:
SOCAL APP/DEP:120.4
ATIS:134.5
CLNC DEL:118
GND:123.9
HAWTHORNE RDO:122.35
TWR:118.7
UNICOM:122.95

KBUR Zoom In..

Runways:

(A) RW 08 length 5802 ft width 150 ft
ILS 109.50 / hdg 76

(B) RW 15 length 6885 ft width 150 ft
---- / hdg 152

(C) RW 26 length 5802 ft width 150 ft
---- / hdg 256

(D) RW 33 length 6885 ft width 150 ft
---- / hdg 332

Location; KBUR
Day. 22 / Time. 03.53 Zulu
* Altimeter: 30.27
* Temperature: 11° c. 51.8°f.
* Wind from: 350° Speed 03 kn.
Dewpoint: -01° c.
Visibility: 10 Statute Miles.
Clouds: Clear (automated report).

KBUR 220353Z 35003KT 10SM CLR 11/M01 A3027 RMK AO2 SLP245 T01061011


Wind From 350°
Speed 03 kn.

jpsM music video
CHECK IT OUT

jpsM - It Moves..

 
jpsmedia.com for Web Design  worldairports.se 2018   terms of use